Time;durP1;ratioP1;P1;durP2;ratioP2;P2;SDS_P1;SDS_P2;PMS_P1;PMS_P2;Temp;Humidity;BMP_temperature;BMP_pressure;BME280_temperature;BME280_humidity;BME280_pressure;Samples;Min_cycle;Max_cycle;Signal;HPM_P1;HPM_P2
2024/01/11 00:00:58;;;;;;;39.92;22.52;;;-1.80;61.80;;;;;;4989118;28;20097;-62
2024/01/11 00:03:29;;;;;;;34.30;21.05;;;-1.80;61.80;;;;;;4989878;28;20070;-62
2024/01/11 00:05:55;;;;;;;36.53;22.67;;;-1.70;61.90;;;;;;4985673;28;20092;-62
2024/01/11 00:08:22;;;;;;;35.28;20.42;;;-1.90;61.80;;;;;;4989308;28;20060;-61
2024/01/11 00:10:49;;;;;;;41.95;20.63;;;-1.80;61.80;;;;;;4990015;28;20104;-62
2024/01/11 00:13:22;;;;;;;39.88;20.83;;;-1.80;61.90;;;;;;4985663;28;20432;-62
2024/01/11 00:15:53;;;;;;;35.88;20.30;;;-1.90;61.90;;;;;;4989498;28;20038;-62
2024/01/11 00:18:24;;;;;;;33.80;21.02;;;-1.80;62.00;;;;;;4983578;28;20297;-63
2024/01/11 00:20:54;;;;;;;35.97;20.70;;;-1.80;62.00;;;;;;4990135;28;20057;-62
2024/01/11 00:23:23;;;;;;;34.75;20.42;;;-1.80;62.00;;;;;;4987286;28;20121;-62
2024/01/11 00:25:51;;;;;;;32.22;20.25;;;-1.80;62.00;;;;;;4989104;28;20533;-62
2024/01/11 00:28:18;;;;;;;39.20;21.23;;;-1.80;62.10;;;;;;4989405;28;20049;-63
2024/01/11 00:30:47;;;;;;;33.40;19.08;;;-1.80;62.20;;;;;;4989856;28;20038;-63
2024/01/11 00:33:17;;;;;;;35.83;19.40;;;-1.80;62.10;;;;;;4987933;28;20654;-62
2024/01/11 00:35:49;;;;;;;36.00;19.77;;;-1.80;62.10;;;;;;4989062;28;20602;-62
2024/01/11 00:38:18;;;;;;;36.28;19.27;;;-1.80;62.10;;;;;;4983425;28;20073;-62
2024/01/11 00:40:47;;;;;;;34.08;19.92;;;-1.80;62.10;;;;;;4988731;28;20066;-63
2024/01/11 00:43:16;;;;;;;35.35;19.42;;;-1.70;62.20;;;;;;4988146;28;20038;-62
2024/01/11 00:45:48;;;;;;;33.65;19.70;;;-1.70;62.10;;;;;;4988269;28;20048;-62
2024/01/11 00:48:14;;;;;;;38.60;20.17;;;-1.70;62.20;;;;;;4987910;28;20070;-63
2024/01/11 00:50:44;;;;;;;31.73;18.92;;;-1.70;62.10;;;;;;4988695;28;20046;-62
2024/01/11 00:53:14;;;;;;;34.70;19.83;;;-1.70;62.10;;;;;;4989394;28;20046;-62
2024/01/11 00:55:40;;;;;;;35.15;20.40;;;-1.70;62.20;;;;;;4987733;28;20457;-62
2024/01/11 00:58:08;;;;;;;35.63;18.95;;;-1.70;62.20;;;;;;4988222;28;20038;-63
2024/01/11 01:00:35;;;;;;;36.80;19.77;;;-1.70;62.20;;;;;;4989251;28;20043;-62
2024/01/11 01:03:03;;;;;;;37.33;21.58;;;-1.70;62.20;;;;;;4990866;28;20038;-62
2024/01/11 01:05:30;;;;;;;34.47;21.17;;;-1.70;62.20;;;;;;4973738;28;20049;-62
2024/01/11 01:07:57;;;;;;;39.60;20.70;;;-1.70;62.20;;;;;;5035584;23;20037;-64
2024/01/11 01:10:26;;;;;;;34.10;20.88;;;-1.70;62.20;;;;;;5052839;28;20063;-64
2024/01/11 01:12:53;;;;;;;38.85;20.40;;;-1.70;62.20;;;;;;5054280;28;20056;-62
2024/01/11 01:15:19;;;;;;;34.15;19.55;;;-1.70;62.20;;;;;;5054889;28;20060;-62
2024/01/11 01:17:46;;;;;;;39.60;21.35;;;-1.70;62.20;;;;;;5034343;28;20175;-62
2024/01/11 01:20:14;;;;;;;39.00;21.45;;;-1.70;62.20;;;;;;5053035;28;20048;-62
2024/01/11 01:22:41;;;;;;;36.75;20.23;;;-1.70;62.20;;;;;;5055076;28;20140;-62
2024/01/11 01:25:08;;;;;;;41.85;21.98;;;-1.70;62.20;;;;;;5050972;28;20032;-62
2024/01/11 01:27:34;;;;;;;35.67;21.73;;;-1.70;62.20;;;;;;5053609;28;20033;-63
2024/01/11 01:30:04;;;;;;;41.53;23.67;;;-1.70;62.10;;;;;;5053464;28;20041;-63
2024/01/11 01:32:31;;;;;;;42.58;23.60;;;-1.70;62.20;;;;;;5045347;28;20037;-63
2024/01/11 01:34:58;;;;;;;37.83;22.42;;;-1.70;62.20;;;;;;5053241;28;20399;-62
2024/01/11 01:37:27;;;;;;;41.88;21.95;;;-1.70;62.10;;;;;;5034513;28;20041;-62
2024/01/11 01:39:53;;;;;;;40.05;22.35;;;-1.70;62.10;;;;;;5048219;28;20481;-63
2024/01/11 01:42:20;;;;;;;45.53;23.33;;;-1.80;62.10;;;;;;5052602;28;20049;-62
2024/01/11 01:44:49;;;;;;;39.00;20.20;;;-1.80;62.10;;;;;;5052721;28;20063;-62
2024/01/11 01:47:21;;;;;;;38.33;21.13;;;-1.80;62.10;;;;;;5053085;28;20130;-62
2024/01/11 01:49:49;;;;;;;34.38;19.65;;;-1.80;62.10;;;;;;5029819;28;20036;-63
2024/01/11 01:52:17;;;;;;;36.38;21.73;;;-1.80;62.10;;;;;;5053030;28;20538;-63
2024/01/11 01:54:49;;;;;;;35.13;19.97;;;-1.80;62.10;;;;;;5053809;28;20080;-62
2024/01/11 01:57:18;;;;;;;39.50;21.05;;;-1.80;62.10;;;;;;5051538;28;20065;-63
2024/01/11 01:59:52;;;;;;;37.17;21.67;;;-1.80;62.00;;;;;;5050364;28;20078;-63
2024/01/11 02:02:20;;;;;;;35.92;23.00;;;-1.80;62.10;;;;;;5046312;28;20029;-62
2024/01/11 02:04:47;;;;;;;39.83;20.77;;;-1.90;62.00;;;;;;5052689;28;20041;-62
2024/01/11 02:07:18;;;;;;;43.08;20.85;;;-1.80;62.00;;;;;;5049798;28;20097;-62
2024/01/11 02:09:45;;;;;;;35.20;21.15;;;-1.90;62.00;;;;;;5048626;28;20119;-63
2024/01/11 02:12:14;;;;;;;42.22;23.08;;;-1.90;62.10;;;;;;5044516;28;20112;-62
2024/01/11 02:14:42;;;;;;;41.13;21.27;;;-1.90;62.10;;;;;;5036571;28;20133;-63
2024/01/11 02:17:10;;;;;;;41.47;21.80;;;-1.90;62.10;;;;;;5050815;28;20533;-63
2024/01/11 02:19:37;;;;;;;37.20;21.27;;;-1.90;62.10;;;;;;5046225;28;20044;-63
2024/01/11 02:22:12;;;;;;;36.67;19.98;;;-1.90;62.10;;;;;;5051917;28;20053;-62
2024/01/11 02:24:39;;;;;;;37.80;20.95;;;-1.90;62.10;;;;;;5047598;28;20041;-62
2024/01/11 02:27:06;;;;;;;35.42;21.33;;;-2.00;62.00;;;;;;5050855;28;20064;-62
2024/01/11 02:29:36;;;;;;;34.55;20.52;;;-2.00;62.10;;;;;;5049925;28;20045;-63
2024/01/11 02:32:04;;;;;;;39.00;21.27;;;-2.00;62.10;;;;;;5048486;28;20104;-62
2024/01/11 02:34:36;;;;;;;38.80;21.98;;;-2.00;62.10;;;;;;5050891;28;20036;-62
2024/01/11 02:37:08;;;;;;;35.28;20.02;;;-2.00;62.20;;;;;;5050826;28;20051;-63
2024/01/11 02:39:35;;;;;;;32.65;20.00;;;-2.00;62.10;;;;;;5050323;28;20419;-62
2024/01/11 02:42:02;;;;;;;38.47;21.30;;;-2.00;62.10;;;;;;5046523;28;20480;-62
2024/01/11 02:44:31;;;;;;;37.58;21.27;;;-2.00;62.70;;;;;;5044610;28;20056;-62
2024/01/11 02:46:58;;;;;;;42.08;20.67;;;-2.10;62.00;;;;;;5050295;28;20120;-62
2024/01/11 02:49:25;;;;;;;39.28;20.95;;;-2.10;62.00;;;;;;5044911;28;20033;-62
2024/01/11 02:51:51;;;;;;;36.22;21.67;;;-2.10;62.10;;;;;;5050348;28;20048;-63
2024/01/11 02:54:18;;;;;;;33.92;18.95;;;-2.10;62.10;;;;;;5062568;28;20044;-62
2024/01/11 02:56:45;;;;;;;41.05;20.17;;;-2.10;62.20;;;;;;5070058;28;20120;-62
2024/01/11 02:59:12;;;;;;;39.47;20.42;;;-2.10;62.20;;;;;;5039836;28;20044;-62
2024/01/11 03:01:44;;;;;;;;;;;-2.10;62.30;;;;;;5066666;28;20565;-62
2024/01/11 03:04:10;;;;;;;30.85;17.52;;;-2.10;62.50;;;;;;5069707;28;19928;-62
2024/01/11 03:06:40;;;;;;;34.17;19.10;;;-2.10;62.00;;;;;;5059004;28;20049;-62
2024/01/11 03:09:07;;;;;;;35.70;19.70;;;-2.20;62.00;;;;;;5052819;28;20396;-62
2024/01/11 03:11:34;;;;;;;34.75;18.95;;;-2.10;62.00;;;;;;5069538;28;20502;-63
2024/01/11 03:14:03;;;;;;;35.83;19.50;;;-2.20;62.00;;;;;;5068757;28;20056;-62
2024/01/11 03:16:30;;;;;;;36.78;21.42;;;-2.20;62.10;;;;;;5051022;28;20041;-62
2024/01/11 03:18:56;;;;;;;39.40;20.75;;;-2.20;62.20;;;;;;5040441;28;20061;-63
2024/01/11 03:21:23;;;;;;;42.38;21.63;;;-2.20;62.20;;;;;;5067517;28;20048;-63
2024/01/11 03:23:53;;;;;;;35.85;20.92;;;-2.20;62.20;;;;;;5058650;28;20443;-62
2024/01/11 03:26:20;;;;;;;40.25;22.00;;;-2.20;62.30;;;;;;5045632;28;20040;-62
2024/01/11 03:28:46;;;;;;;39.10;22.10;;;-2.20;62.40;;;;;;5064623;28;20044;-63
2024/01/11 03:31:13;;;;;;;36.58;20.80;;;-2.20;62.40;;;;;;5068533;28;20523;-62
2024/01/11 03:33:40;;;;;;;38.33;20.15;;;-2.20;62.30;;;;;;5044173;28;20060;-62
2024/01/11 03:36:15;;;;;;;38.58;21.35;;;-2.20;62.30;;;;;;5060507;28;20044;-62
2024/01/11 03:38:42;;;;;;;41.35;22.17;;;-2.20;62.20;;;;;;5067482;28;20032;-63
2024/01/11 03:41:13;;;;;;;40.20;21.67;;;-2.30;62.20;;;;;;5052152;28;20075;-61
2024/01/11 03:43:41;;;;;;;29.42;15.70;;;-2.30;62.20;;;;;;5055716;28;20124;-61
2024/01/11 03:46:08;;;;;;;39.33;20.15;;;-2.30;62.20;;;;;;5067246;28;20473;-62
2024/01/11 03:48:37;;;;;;;37.70;21.25;;;-2.30;62.20;;;;;;5047540;28;20053;-62
2024/01/11 03:51:07;;;;;;;36.53;21.58;;;-2.30;62.20;;;;;;5062898;28;20044;-63
2024/01/11 03:53:37;;;;;;;34.42;20.00;;;-2.30;62.20;;;;;;5067760;28;20123;-62
2024/01/11 03:56:05;;;;;;;40.42;20.38;;;-2.30;62.20;;;;;;5034205;28;20486;-62
2024/01/11 03:58:36;;;;;;;35.97;19.60;;;-2.40;62.10;;;;;;5047042;28;20082;-63
2024/01/11 04:01:02;;;;;;;32.90;18.85;;;-2.30;62.20;;;;;;5065678;28;20086;-62
2024/01/11 04:03:35;;;;;;;41.85;21.77;;;-2.40;62.10;;;;;;5067196;28;20033;-62
2024/01/11 04:06:04;;;;;;;35.78;21.38;;;-2.40;62.10;;;;;;5056251;28;20099;-62
2024/01/11 04:08:36;;;;;;;38.75;19.60;;;-2.40;62.10;;;;;;5051687;28;20087;-62
2024/01/11 04:11:04;;;;;;;39.35;21.67;;;-2.40;62.10;;;;;;5066090;28;20409;-63
2024/01/11 04:13:32;;;;;;;38.08;19.60;;;-2.40;62.10;;;;;;5066978;28;20375;-61
2024/01/11 04:15:58;;;;;;;41.58;19.58;;;-2.40;62.10;;;;;;5054097;28;20059;-63
2024/01/11 04:18:25;;;;;;;37.83;21.52;;;-2.40;62.10;;;;;;5043504;28;20042;-62
2024/01/11 04:20:52;;;;;;;38.58;20.27;;;-2.40;62.20;;;;;;5053768;28;20048;-62
2024/01/11 04:23:22;;;;;;;41.38;22.85;;;-2.40;62.20;;;;;;5054932;28;20040;-62
2024/01/11 04:25:51;;;;;;;37.65;21.90;;;-2.40;62.10;;;;;;5042904;28;20072;-61
2024/01/11 04:28:17;;;;;;;37.70;20.25;;;-2.50;62.10;;;;;;5040408;28;20043;-62
2024/01/11 04:30:46;;;;;;;38.45;20.88;;;-2.50;62.10;;;;;;5059658;28;20119;-62
2024/01/11 04:33:13;;;;;;;36.80;19.30;;;-2.50;62.10;;;;;;5052174;28;20037;-62
2024/01/11 04:35:40;;;;;;;42.65;20.05;;;-2.50;62.10;;;;;;5055940;28;20045;-63
2024/01/11 04:38:07;;;;;;;36.03;19.77;;;-2.50;62.10;;;;;;5067100;28;20134;-63
2024/01/11 04:40:33;;;;;;;37.20;20.02;;;-2.50;62.10;;;;;;5057682;28;20099;-62
2024/01/11 04:43:00;;;;;;;36.78;18.63;;;-2.50;62.10;;;;;;5065554;28;20044;-62
2024/01/11 04:45:29;;;;;;;37.95;21.45;;;-2.50;62.10;;;;;;5040199;28;20547;-62
2024/01/11 04:47:56;;;;;;;39.70;19.77;;;-2.60;62.40;;;;;;5056732;28;20124;-63
2024/01/11 04:50:23;;;;;;;36.97;20.83;;;-2.60;62.00;;;;;;5036528;28;20036;-63
2024/01/11 04:52:55;;;;;;;38.55;20.50;;;-2.60;62.00;;;;;;5069272;28;20047;-62
2024/01/11 04:55:22;;;;;;;;;;;-2.60;62.00;;;;;;5069430;28;20041;-62
2024/01/11 04:57:48;;;;;;;36.20;19.70;;;-2.50;62.40;;;;;;5051493;28;19952;-62
2024/01/11 05:00:20;;;;;;;34.17;19.45;;;-2.60;62.00;;;;;;5064772;28;20051;-62
2024/01/11 05:02:47;;;;;;;36.95;19.92;;;-2.60;62.00;;;;;;5038240;28;20053;-62
2024/01/11 05:05:14;;;;;;;39.80;20.92;;;-2.60;62.00;;;;;;5059603;28;20484;-63
2024/01/11 05:07:40;;;;;;;40.38;21.73;;;-2.60;62.20;;;;;;5052200;28;20049;-61
2024/01/11 05:10:15;;;;;;;39.33;20.98;;;-2.70;62.30;;;;;;5059585;28;20045;-62
2024/01/11 05:12:41;;;;;;;35.72;19.85;;;-2.60;62.50;;;;;;5068755;28;20460;-62
2024/01/11 05:15:08;;;;;;;38.25;20.65;;;-2.70;62.30;;;;;;5056106;28;20127;-63
2024/01/11 05:17:37;;;;;;;37.42;20.15;;;-2.70;62.30;;;;;;5050135;28;20119;-61
2024/01/11 05:20:05;;;;;;;38.03;21.17;;;-2.70;62.30;;;;;;5036667;28;20507;-62
2024/01/11 05:22:35;;;;;;;37.58;20.48;;;-2.70;62.30;;;;;;5068497;28;20044;-62
2024/01/11 05:25:02;;;;;;;36.30;20.33;;;-2.70;62.40;;;;;;5049386;28;20037;-62
2024/01/11 05:27:29;;;;;;;36.58;19.40;;;-2.70;62.40;;;;;;5054692;28;20091;-63
2024/01/11 05:29:55;;;;;;;35.67;20.98;;;-2.70;62.40;;;;;;5053862;28;20116;-62
2024/01/11 05:32:22;;;;;;;37.05;20.90;;;-2.70;62.40;;;;;;5057606;28;20045;-62
2024/01/11 05:34:49;;;;;;;40.03;22.00;;;-2.70;62.40;;;;;;5044821;28;20765;-63
2024/01/11 05:37:16;;;;;;;37.75;21.00;;;-2.70;62.40;;;;;;5058623;28;20052;-63
2024/01/11 05:39:44;;;;;;;39.92;20.60;;;-2.70;62.40;;;;;;5034273;28;20044;-64
2024/01/11 05:42:11;;;;;;;40.83;21.88;;;-2.70;62.40;;;;;;5061004;28;20099;-66
2024/01/11 05:44:38;;;;;;;36.70;22.48;;;-2.70;62.40;;;;;;5048455;28;20049;-65
2024/01/11 05:47:05;;;;;;;43.55;21.63;;;-2.70;62.50;;;;;;5056884;28;20033;-65
2024/01/11 05:49:32;;;;;;;40.58;21.23;;;-2.70;62.50;;;;;;5050672;28;20073;-65
2024/01/11 05:52:00;;;;;;;42.38;22.50;;;-2.70;62.60;;;;;;5047466;28;20061;-65
2024/01/11 05:54:28;;;;;;;41.10;22.63;;;-2.70;62.70;;;;;;5065833;28;20116;-66
2024/01/11 05:56:59;;;;;;;39.33;23.25;;;-2.70;62.70;;;;;;5060255;28;20045;-65
2024/01/11 05:59:26;;;;;;;44.65;22.58;;;-2.70;62.70;;;;;;5048493;28;20037;-67
2024/01/11 06:01:52;;;;;;;39.03;21.98;;;-2.70;62.70;;;;;;5060216;28;20102;-65
2024/01/11 06:04:19;;;;;;;42.58;22.40;;;-2.70;62.70;;;;;;5053860;28;20114;-66
2024/01/11 06:06:46;;;;;;;41.85;22.77;;;-2.70;62.80;;;;;;5048800;28;20041;-67
2024/01/11 06:09:12;;;;;;;47.13;22.63;;;-2.70;62.80;;;;;;5052122;28;20079;-66
2024/01/11 06:11:39;;;;;;;43.55;22.83;;;-2.70;62.80;;;;;;5063212;28;20469;-64
2024/01/11 06:14:06;;;;;;;42.05;21.70;;;-2.70;62.80;;;;;;5030406;28;20095;-66
2024/01/11 06:16:33;;;;;;;42.33;23.25;;;-2.70;62.80;;;;;;5045176;28;20056;-65
2024/01/11 06:19:00;;;;;;;45.97;24.55;;;-2.60;63.00;;;;;;5043400;28;20087;-63
2024/01/11 06:21:28;;;;;;;43.40;24.73;;;-2.70;63.70;;;;;;5060993;28;20101;-62
2024/01/11 06:23:55;;;;;;;43.95;23.60;;;-2.70;63.70;;;;;;5046106;28;20094;-63
2024/01/11 06:26:24;;;;;;;39.00;21.02;;;-2.60;63.20;;;;;;5057065;28;20056;-63
2024/01/11 06:28:52;;;;;;;45.38;24.92;;;-2.60;63.20;;;;;;5054522;28;20063;-63
2024/01/11 06:31:19;;;;;;;46.97;24.67;;;-2.60;63.10;;;;;;5050371;28;20068;-63
2024/01/11 06:33:46;;;;;;;43.53;23.02;;;-2.60;63.10;;;;;;5054587;28;20079;-63
2024/01/11 06:36:17;;;;;;;29.95;15.85;;;-2.60;63.10;;;;;;5030529;28;20053;-64
2024/01/11 06:38:43;;;;;;;43.80;23.52;;;-2.60;63.00;;;;;;5057567;28;20102;-63
2024/01/11 06:41:10;;;;;;;39.35;22.73;;;-2.60;62.90;;;;;;5048980;28;20473;-63
2024/01/11 06:43:38;;;;;;;39.88;25.20;;;-2.60;62.80;;;;;;5051846;28;20511;-63
2024/01/11 06:46:05;;;;;;;48.55;24.90;;;-2.60;62.80;;;;;;5046793;28;20090;-64
2024/01/11 06:48:32;;;;;;;41.40;24.25;;;-2.60;62.80;;;;;;5045078;28;20036;-63
2024/01/11 06:50:59;;;;;;;43.65;23.58;;;-2.70;62.80;;;;;;5028232;28;20513;-64
2024/01/11 06:53:28;;;;;;;44.67;22.23;;;-2.60;62.80;;;;;;5052712;28;20033;-64
2024/01/11 06:55:54;;;;;;;42.75;22.60;;;-2.70;62.80;;;;;;5053569;28;20107;-64
2024/01/11 06:58:25;;;;;;;41.70;22.00;;;-2.70;62.70;;;;;;5050800;28;20041;-64
2024/01/11 07:00:55;;;;;;;38.70;22.80;;;-2.70;62.70;;;;;;5041954;28;20119;-63
2024/01/11 07:03:22;;;;;;;39.47;22.27;;;-2.70;62.70;;;;;;5047316;28;20036;-65
2024/01/11 07:05:48;;;;;;;46.08;23.52;;;-2.70;62.60;;;;;;5049722;28;20651;-64
2024/01/11 07:08:17;;;;;;;45.80;23.58;;;-2.70;62.60;;;;;;5043077;28;20049;-63
2024/01/11 07:10:44;;;;;;;44.08;21.48;;;-2.70;62.60;;;;;;5057493;28;20043;-64
2024/01/11 07:13:11;;;;;;;40.22;22.52;;;-2.70;62.50;;;;;;5057958;28;20087;-64
2024/01/11 07:15:38;;;;;;;40.97;23.88;;;-2.80;62.50;;;;;;5049185;28;20041;-64
2024/01/11 07:18:05;;;;;;;39.15;21.42;;;-2.80;62.40;;;;;;5047910;28;20040;-64
2024/01/11 07:20:33;;;;;;;44.97;22.02;;;-2.80;62.50;;;;;;5052597;28;20491;-64
2024/01/11 07:23:02;;;;;;;40.67;21.75;;;-2.80;62.40;;;;;;5060916;28;20106;-64
2024/01/11 07:25:30;;;;;;;38.88;21.30;;;-2.80;62.40;;;;;;5049066;28;20556;-64
2024/01/11 07:27:56;;;;;;;37.47;20.95;;;-2.80;62.40;;;;;;5054115;28;20483;-64
2024/01/11 07:30:23;;;;;;;39.65;22.35;;;-2.80;62.40;;;;;;5030165;28;20419;-64
2024/01/11 07:32:51;;;;;;;46.33;22.17;;;-2.80;62.40;;;;;;5055104;28;20055;-64
2024/01/11 07:35:18;;;;;;;38.55;23.20;;;-2.90;62.40;;;;;;5046887;28;20471;-64
2024/01/11 07:37:45;;;;;;;43.15;21.95;;;-2.90;62.50;;;;;;5021216;28;20047;-65
2024/01/11 07:40:14;;;;;;;39.58;22.27;;;-2.90;62.60;;;;;;5053144;28;20052;-65
2024/01/11 07:42:42;;;;;;;43.33;22.77;;;-2.90;62.70;;;;;;5046054;28;20452;-65
2024/01/11 07:45:10;;;;;;;41.60;22.05;;;-2.90;62.60;;;;;;5054873;28;20144;-66
2024/01/11 07:47:37;;;;;;;41.17;21.77;;;-2.90;62.70;;;;;;5049010;28;20044;-65
2024/01/11 07:50:09;;;;;;;42.38;22.75;;;-2.90;62.70;;;;;;5048625;28;20130;-65
2024/01/11 07:52:36;;;;;;;40.80;21.85;;;-2.90;62.70;;;;;;5061144;28;20044;-65
2024/01/11 07:55:07;;;;;;;44.28;23.90;;;-2.90;62.80;;;;;;5058244;28;20036;-66
2024/01/11 07:57:35;;;;;;;29.10;17.77;;;-2.80;62.90;;;;;;5051577;28;20039;-66
2024/01/11 08:00:03;;;;;;;42.55;21.85;;;-2.80;62.90;;;;;;5057862;28;20040;-66
2024/01/11 08:02:38;;;;;;;46.63;22.92;;;-2.80;62.80;;;;;;5060899;28;20502;-65
2024/01/11 08:05:05;;;;;;;44.05;23.50;;;-2.80;62.80;;;;;;5054637;28;20574;-66
2024/01/11 08:07:32;;;;;;;39.38;23.60;;;-2.80;62.80;;;;;;5050849;28;20419;-65
2024/01/11 08:10:00;;;;;;;39.08;21.65;;;-2.80;62.90;;;;;;5051225;28;20046;-66
2024/01/11 08:12:29;;;;;;;45.50;23.15;;;-2.80;62.90;;;;;;5058016;28;20120;-66
2024/01/11 08:14:56;;;;;;;43.55;24.80;;;-2.80;63.00;;;;;;5052695;28;20110;-65
2024/01/11 08:17:23;;;;;;;43.47;21.75;;;-2.80;62.90;;;;;;5049088;28;20132;-65
2024/01/11 08:19:49;;;;;;;43.15;23.75;;;-2.80;62.90;;;;;;5028782;28;20033;-65
2024/01/11 08:22:16;;;;;;;45.25;24.58;;;-2.70;63.10;;;;;;5049139;28;20098;-65
2024/01/11 08:24:43;;;;;;;45.03;24.05;;;-2.70;63.10;;;;;;5047797;28;20033;-66
2024/01/11 08:27:12;;;;;;;47.28;27.13;;;-2.70;63.10;;;;;;5052320;28;20128;-65
2024/01/11 08:29:40;;;;;;;43.50;23.15;;;-2.70;63.20;;;;;;5058317;28;20616;-65
2024/01/11 08:32:10;;;;;;;45.00;23.90;;;-2.70;63.20;;;;;;5049620;28;20500;-66
2024/01/11 08:34:49;;;;;;;42.58;23.63;;;-2.70;63.20;;;;;;5053024;28;20120;-65
2024/01/11 08:37:16;;;;;;;49.92;25.00;;;-2.60;63.40;;;;;;5034894;28;20095;-65
2024/01/11 08:39:46;;;;;;;39.60;22.73;;;-2.60;63.40;;;;;;5056371;28;20119;-65
2024/01/11 08:42:12;;;;;;;43.63;23.48;;;-2.50;63.50;;;;;;5046319;28;20144;-65
2024/01/11 08:44:42;;;;;;;47.15;24.17;;;-2.50;63.50;;;;;;5038470;28;20072;-65
2024/01/11 08:47:09;;;;;;;45.72;24.27;;;-2.50;63.50;;;;;;5053255;28;20052;-65
2024/01/11 08:49:39;;;;;;;43.50;22.70;;;-2.50;63.60;;;;;;5045360;28;20108;-65
2024/01/11 08:52:08;;;;;;;46.03;23.75;;;-2.40;63.60;;;;;;5056227;28;20075;-65
2024/01/11 08:54:35;;;;;;;48.03;25.25;;;-2.40;63.70;;;;;;5056060;28;20099;-64
2024/01/11 08:57:03;;;;;;;42.17;25.00;;;-2.40;63.80;;;;;;5034553;28;20041;-66
2024/01/11 08:59:30;;;;;;;50.58;26.95;;;-2.30;64.70;;;;;;5046443;28;20045;-65
2024/01/11 09:01:56;;;;;;;51.47;27.23;;;-2.30;64.20;;;;;;5058180;28;20477;-66
2024/01/11 09:04:39;;;;;;;50.67;25.50;;;-2.20;64.40;;;;;;5051896;28;20041;-65
2024/01/11 09:07:06;;;;;;;45.47;23.85;;;-2.20;64.50;;;;;;5054388;28;20490;-65
2024/01/11 09:09:32;;;;;;;47.58;24.98;;;-2.10;64.60;;;;;;5054389;28;20593;-65
2024/01/11 09:12:13;;;;;;;49.63;26.52;;;-2.10;64.60;;;;;;5054604;28;20053;-65
2024/01/11 09:14:39;;;;;;;47.60;25.60;;;-2.00;64.60;;;;;;5048964;28;20507;-66
2024/01/11 09:17:06;;;;;;;49.38;25.90;;;-2.00;64.60;;;;;;5052282;28;20044;-66
2024/01/11 09:19:39;;;;;;;48.97;25.50;;;-1.90;64.80;;;;;;5047118;28;20061;-65
2024/01/11 09:22:09;;;;;;;43.90;26.52;;;-1.80;64.80;;;;;;5053830;28;20036;-65
2024/01/11 09:24:36;;;;;;;52.97;26.63;;;-1.80;64.90;;;;;;5052535;28;20124;-66
2024/01/11 09:27:06;;;;;;;48.00;26.92;;;-1.70;64.90;;;;;;5059244;28;20032;-66
2024/01/11 09:29:35;;;;;;;51.47;27.30;;;-1.70;64.90;;;;;;5057542;28;20120;-65
2024/01/11 09:32:02;;;;;;;52.47;26.80;;;-1.60;65.00;;;;;;5060259;28;20119;-65
2024/01/11 09:34:29;;;;;;;48.55;26.10;;;-1.60;64.90;;;;;;5048084;28;20510;-66
2024/01/11 09:36:58;;;;;;;46.72;27.48;;;-1.50;64.80;;;;;;5060170;28;20074;-66
2024/01/11 09:39:27;;;;;;;51.92;27.13;;;-1.40;64.80;;;;;;5057464;28;20087;-66
2024/01/11 09:42:04;;;;;;;47.67;27.25;;;-1.40;64.80;;;;;;5048656;28;20050;-66
2024/01/11 09:44:30;;;;;;;54.80;30.52;;;-1.40;64.70;;;;;;5054111;28;20045;-65
2024/01/11 09:46:59;;;;;;;48.20;28.13;;;-1.30;64.80;;;;;;5030583;28;20118;-66
2024/01/11 09:49:27;;;;;;;48.28;26.77;;;-1.30;64.90;;;;;;5048127;28;20045;-65
2024/01/11 09:51:56;;;;;;;46.47;27.33;;;-1.10;65.00;;;;;;5054502;28;20123;-65
2024/01/11 09:54:24;;;;;;;51.08;27.73;;;-1.20;65.00;;;;;;5044848;23;20041;-59
2024/01/11 09:56:54;;;;;;;49.33;28.63;;;-1.10;65.10;;;;;;5041192;28;20492;-60
2024/01/11 09:59:24;;;;;;;49.75;28.05;;;-1.10;65.20;;;;;;5037470;28;20123;-57
2024/01/11 10:01:51;;;;;;;51.20;29.40;;;-1.00;65.10;;;;;;5032374;28;20609;-58
2024/01/11 10:04:18;;;;;;;51.70;27.48;;;-1.00;65.20;;;;;;5032274;28;20492;-59
2024/01/11 10:06:47;;;;;;;48.00;26.45;;;-0.90;65.20;;;;;;5018606;28;20072;-59
2024/01/11 10:09:14;;;;;;;48.15;27.98;;;-0.90;65.20;;;;;;5008477;28;20419;-56
2024/01/11 10:11:41;;;;;;;55.03;27.63;;;-0.90;65.20;;;;;;5034894;28;20044;-58
2024/01/11 10:14:10;;;;;;;45.47;26.88;;;-0.80;65.10;;;;;;5034193;28;20137;-58
2024/01/11 10:16:37;;;;;;;48.92;29.23;;;-0.80;65.10;;;;;;5033170;28;20045;-56
2024/01/11 10:19:04;;;;;;;48.00;27.13;;;-0.70;65.20;;;;;;5025482;28;20045;-58
2024/01/11 10:21:31;;;;;;;47.72;27.40;;;-0.60;65.20;;;;;;5032715;28;20041;-57
2024/01/11 10:23:59;;;;;;;49.17;25.70;;;-0.60;65.10;;;;;;5026998;28;20052;-58
2024/01/11 10:26:26;;;;;;;47.03;26.35;;;-0.50;65.00;;;;;;5032674;28;20052;-58
2024/01/11 10:28:52;;;;;;;46.97;28.00;;;-0.50;64.90;;;;;;5035439;28;20069;-58
2024/01/11 10:31:24;;;;;;;50.05;27.63;;;-0.40;64.90;;;;;;5032129;28;20037;-58
2024/01/11 10:33:50;;;;;;;51.78;27.00;;;-0.40;64.90;;;;;;5030925;28;20293;-58
2024/01/11 10:36:18;;;;;;;54.05;28.88;;;-0.40;65.00;;;;;;5031660;28;20037;-57
2024/01/11 10:38:47;;;;;;;50.58;29.30;;;-0.30;65.10;;;;;;5030948;28;20045;-58
2024/01/11 10:41:19;;;;;;;50.92;29.13;;;-0.30;65.00;;;;;;5007374;28;20033;-57
2024/01/11 10:43:49;;;;;;;46.92;29.23;;;-0.20;64.90;;;;;;5030589;28;20512;-57
2024/01/11 10:46:22;;;;;;;53.58;29.27;;;-0.10;64.90;;;;;;5025573;28;20478;-58
2024/01/11 10:48:52;;;;;;;48.03;27.73;;;-0.10;65.50;;;;;;5028915;28;20083;-58
2024/01/11 10:51:22;;;;;;;47.00;27.27;;;0.00;64.90;;;;;;5032198;28;20099;-58
2024/01/11 10:53:51;;;;;;;53.40;28.55;;;0.00;64.90;;;;;;5031363;28;20053;-58
2024/01/11 10:56:20;;;;;;;52.90;30.83;;;0.10;65.00;;;;;;5032799;28;20455;-58
2024/01/11 10:58:47;;;;;;;52.30;27.65;;;0.20;65.10;;;;;;5029771;28;20124;-56
2024/01/11 11:01:16;;;;;;;51.40;29.60;;;0.30;65.20;;;;;;5025699;28;20080;-58
2024/01/11 11:03:44;;;;;;;49.78;27.52;;;0.30;65.00;;;;;;5031463;28;20495;-58
2024/01/11 11:06:11;;;;;;;48.15;27.30;;;0.40;65.00;;;;;;5028719;28;20116;-58
2024/01/11 11:08:40;;;;;;;51.72;29.90;;;0.50;64.80;;;;;;5028945;28;20037;-57
2024/01/11 11:11:10;;;;;;;52.15;28.33;;;0.50;64.60;;;;;;5029133;28;20113;-58
2024/01/11 11:13:38;;;;;;;46.53;26.63;;;0.60;64.50;;;;;;5027317;28;20048;-57
2024/01/11 11:16:05;;;;;;;43.65;26.55;;;0.60;64.30;;;;;;5020393;28;20547;-58
2024/01/11 11:18:34;;;;;;;42.03;25.50;;;0.60;64.10;;;;;;5025318;28;20508;-57
2024/01/11 11:21:10;;;;;;;49.22;28.70;;;0.60;64.00;;;;;;5031391;28;20045;-58
2024/01/11 11:23:37;;;;;;;48.35;29.60;;;0.70;63.90;;;;;;5011506;28;20053;-58
2024/01/11 11:26:09;;;;;;;47.42;27.73;;;0.80;63.90;;;;;;5024167;28;20077;-56
2024/01/11 11:28:36;;;;;;;46.58;24.45;;;0.70;63.80;;;;;;5020157;28;20049;-58
2024/01/11 11:31:03;;;;;;;44.15;25.27;;;0.80;63.80;;;;;;5029162;28;20036;-58
2024/01/11 11:33:33;;;;;;;45.03;27.20;;;0.80;63.50;;;;;;5022569;28;20064;-58
2024/01/11 11:36:02;;;;;;;49.13;27.20;;;0.90;63.50;;;;;;5029344;28;20124;-58
2024/01/11 11:38:31;;;;;;;41.92;25.20;;;0.90;63.40;;;;;;5028825;28;20500;-58
2024/01/11 11:41:00;;;;;;;43.92;24.88;;;1.00;63.40;;;;;;5022743;28;20045;-58
2024/01/11 11:43:28;;;;;;;47.78;26.33;;;0.90;63.20;;;;;;5028333;28;20117;-58
2024/01/11 11:45:56;;;;;;;44.28;26.75;;;1.00;63.10;;;;;;5027838;28;20102;-58
2024/01/11 11:48:31;;;;;;;46.95;27.10;;;1.00;63.00;;;;;;5024502;28;20045;-58
2024/01/11 11:51:08;;;;;;;49.38;26.30;;;1.10;62.80;;;;;;5025358;28;20079;-58
2024/01/11 11:53:36;;;;;;;44.97;24.55;;;1.20;62.50;;;;;;5022346;28;20096;-58
2024/01/11 11:56:04;;;;;;;41.22;24.20;;;1.20;62.40;;;;;;5027326;28;20048;-58
2024/01/11 11:58:32;;;;;;;43.03;24.08;;;1.20;62.30;;;;;;5026950;28;20116;-58
2024/01/11 12:01:00;;;;;;;42.58;25.45;;;1.20;62.20;;;;;;5028889;28;20033;-58
2024/01/11 12:03:33;;;;;;;41.53;24.20;;;1.30;62.20;;;;;;5030245;28;20038;-59
2024/01/11 12:06:00;;;;;;;43.38;24.63;;;1.30;62.00;;;;;;5031977;28;20037;-57
2024/01/11 12:08:27;;;;;;;36.75;23.98;;;1.30;62.10;;;;;;5029975;28;20037;-58
2024/01/11 12:10:54;;;;;;;43.38;23.77;;;1.30;62.30;;;;;;5030431;28;20037;-58
2024/01/11 12:13:21;;;;;;;42.00;23.83;;;1.40;62.40;;;;;;5026448;28;20130;-58
2024/01/11 12:15:48;;;;;;;38.72;24.27;;;1.40;62.30;;;;;;5032062;28;20079;-58
2024/01/11 12:18:15;;;;;;;38.50;24.10;;;1.40;62.20;;;;;;5024123;28;20103;-57
2024/01/11 12:20:42;;;;;;;39.60;23.20;;;1.50;62.10;;;;;;5026325;28;20049;-58
2024/01/11 12:23:09;;;;;;;41.58;25.52;;;1.50;62.10;;;;;;5029061;28;20427;-58
2024/01/11 12:25:36;;;;;;;40.88;22.85;;;1.60;62.10;;;;;;5029800;28;20093;-58
2024/01/11 12:28:03;;;;;;;39.70;23.00;;;1.60;62.00;;;;;;5023386;28;20045;-58
2024/01/11 12:30:30;;;;;;;42.33;25.25;;;1.70;61.90;;;;;;5030121;28;20053;-57
2024/01/11 12:32:57;;;;;;;38.33;22.48;;;1.70;61.80;;;;;;5029938;28;20467;-58